Terminal Aerodrome Forecast
Issued by NWS

Home | Current Version | Previous Version | Text Only | Print | Product List | Glossary On
Versions: 1 2 3 4 5 6 7 8 9 10 11 12
000
FTUS45 KTWC 231133
TAFOLS
TAF
KOLS 231133Z 2312/2412 VRB03KT P6SM FEW100 BKN180
     FM232000 20008KT P6SM VCTS SCT060CB BKN100
      TEMPO 2321/2324 4SM -TSRA BKN060CB
     FM240100 VRB04KT P6SM VCSH SCT080 BKN120
     FM240300 09005KT P6SM SCT120 BKN200=

USA.gov is the U.S. government's official web portal to all federal, state and local government web resources and services.